Arabi, Louisiana
Current Conditions -  °F | °C
As of 9:55 PM on Tuesday 21 Oct 2014 (Local Time) from KVSH Reporting Station
Clear Clear  
Wind Chill: 73°   Ceiling: Unl
Heat Index: 73°   Visibility: 10mi
Dew Point: 54°   Wind: 3mph
Humidity: 50%   Direction: 200°SSW
Pressure: 30.04"   Gusts: NA
Location:  29.95°N, 90.01°W
Report Text: KVSH 220255Z AUTO 20003KT 10SM CLR 23/12 A3004 RMK AO1 52020
Loading
Personal Weather Stations






























Interactive Weather Map
Tropical Storm Tracking
New forecast layout! Learn more

10-Day Weather Forecast

Advertisements
Track Severe Weather on mobile